sensor_id;sensor_type;location;lat;lon;timestamp;temperature;humidity
36586;DHT22;22591;48.314;11.562;2023-07-31T00:01:45;15.70;99.90
36586;DHT22;22591;48.314;11.562;2023-07-31T00:04:11;15.70;99.90
36586;DHT22;22591;48.314;11.562;2023-07-31T00:06:36;15.70;99.90
36586;DHT22;22591;48.314;11.562;2023-07-31T00:09:02;15.60;99.90
36586;DHT22;22591;48.314;11.562;2023-07-31T00:11:28;15.60;99.90
36586;DHT22;22591;48.314;11.562;2023-07-31T00:13:53;15.60;99.90
36586;DHT22;22591;48.314;11.562;2023-07-31T00:16:19;15.70;99.90
36586;DHT22;22591;48.314;11.562;2023-07-31T00:18:45;15.70;99.90
36586;DHT22;22591;48.314;11.562;2023-07-31T00:21:11;15.60;99.90
36586;DHT22;22591;48.314;11.562;2023-07-31T00:23:36;15.60;99.90
36586;DHT22;22591;48.314;11.562;2023-07-31T00:26:02;15.50;99.90
36586;DHT22;22591;48.314;11.562;2023-07-31T00:28:27;15.40;99.90
36586;DHT22;22591;48.314;11.562;2023-07-31T00:30:54;15.30;99.90
36586;DHT22;22591;48.314;11.562;2023-07-31T00:33:19;15.20;99.90
36586;DHT22;22591;48.314;11.562;2023-07-31T00:35:45;15.20;99.90
36586;DHT22;22591;48.314;11.562;2023-07-31T00:38:11;15.20;99.90
36586;DHT22;22591;48.314;11.562;2023-07-31T00:40:37;15.10;99.90
36586;DHT22;22591;48.314;11.562;2023-07-31T00:43:03;15.10;99.90
36586;DHT22;22591;48.314;11.562;2023-07-31T00:45:29;15.10;99.90
36586;DHT22;22591;48.314;11.562;2023-07-31T00:47:55;15.10;99.90
36586;DHT22;22591;48.314;11.562;2023-07-31T00:50:24;15.00;99.90
36586;DHT22;22591;48.314;11.562;2023-07-31T00:52:50;15.00;99.90
36586;DHT22;22591;48.314;11.562;2023-07-31T00:55:16;14.90;99.90
36586;DHT22;22591;48.314;11.562;2023-07-31T00:57:42;14.90;99.90
36586;DHT22;22591;48.314;11.562;2023-07-31T01:00:08;14.90;99.90
36586;DHT22;22591;48.314;11.562;2023-07-31T01:02:34;14.80;99.90
36586;DHT22;22591;48.314;11.562;2023-07-31T01:05:01;14.80;99.90
36586;DHT22;22591;48.314;11.562;2023-07-31T01:07:53;14.70;99.90
36586;DHT22;22591;48.314;11.562;2023-07-31T01:10:21;14.70;99.90
36586;DHT22;22591;48.314;11.562;2023-07-31T01:12:48;14.70;99.90
36586;DHT22;22591;48.314;11.562;2023-07-31T01:15:15;14.80;99.90
36586;DHT22;22591;48.314;11.562;2023-07-31T01:17:43;14.90;99.90
36586;DHT22;22591;48.314;11.562;2023-07-31T01:20:21;15.00;99.90
36586;DHT22;22591;48.314;11.562;2023-07-31T01:26:17;15.20;99.90
36586;DHT22;22591;48.314;11.562;2023-07-31T01:31:21;15.30;99.90
36586;DHT22;22591;48.314;11.562;2023-07-31T01:33:48;15.30;99.90
36586;DHT22;22591;48.314;11.562;2023-07-31T01:36:14;15.20;99.90
36586;DHT22;22591;48.314;11.562;2023-07-31T01:38:40;15.30;99.90
36586;DHT22;22591;48.314;11.562;2023-07-31T01:41:05;15.20;99.90
36586;DHT22;22591;48.314;11.562;2023-07-31T01:43:31;15.20;99.90
36586;DHT22;22591;48.314;11.562;2023-07-31T01:45:56;15.10;99.90
36586;DHT22;22591;48.314;11.562;2023-07-31T01:48:22;15.00;99.90
36586;DHT22;22591;48.314;11.562;2023-07-31T01:50:47;14.90;99.90
36586;DHT22;22591;48.314;11.562;2023-07-31T01:53:13;14.90;99.90
36586;DHT22;22591;48.314;11.562;2023-07-31T01:55:39;14.80;99.90
36586;DHT22;22591;48.314;11.562;2023-07-31T01:58:04;14.70;99.90
36586;DHT22;22591;48.314;11.562;2023-07-31T02:00:30;14.70;99.90
36586;DHT22;22591;48.314;11.562;2023-07-31T02:02:55;14.70;99.90
36586;DHT22;22591;48.314;11.562;2023-07-31T02:05:21;14.70;99.90
36586;DHT22;22591;48.314;11.562;2023-07-31T02:07:46;14.70;99.90
36586;DHT22;22591;48.314;11.562;2023-07-31T02:10:12;14.70;99.90
36586;DHT22;22591;48.314;11.562;2023-07-31T02:12:37;14.60;99.90
36586;DHT22;22591;48.314;11.562;2023-07-31T02:15:03;14.60;99.90
36586;DHT22;22591;48.314;11.562;2023-07-31T02:17:29;14.40;99.90
36586;DHT22;22591;48.314;11.562;2023-07-31T02:19:55;14.40;99.90
36586;DHT22;22591;48.314;11.562;2023-07-31T02:22:20;14.30;99.90
36586;DHT22;22591;48.314;11.562;2023-07-31T02:24:46;14.30;99.90
36586;DHT22;22591;48.314;11.562;2023-07-31T02:27:11;14.20;99.90
36586;DHT22;22591;48.314;11.562;2023-07-31T02:29:37;14.20;99.90
36586;DHT22;22591;48.314;11.562;2023-07-31T02:32:03;14.20;99.90
36586;DHT22;22591;48.314;11.562;2023-07-31T02:34:28;14.20;99.90
36586;DHT22;22591;48.314;11.562;2023-07-31T02:36:54;14.20;99.90
36586;DHT22;22591;48.314;11.562;2023-07-31T02:39:19;14.20;99.90
36586;DHT22;22591;48.314;11.562;2023-07-31T02:41:45;14.20;99.90
36586;DHT22;22591;48.314;11.562;2023-07-31T02:44:10;14.20;99.90
36586;DHT22;22591;48.314;11.562;2023-07-31T02:46:38;14.20;99.90
36586;DHT22;22591;48.314;11.562;2023-07-31T02:49:04;14.10;99.90
36586;DHT22;22591;48.314;11.562;2023-07-31T02:51:29;14.10;99.90
36586;DHT22;22591;48.314;11.562;2023-07-31T02:53:55;14.00;99.90
36586;DHT22;22591;48.314;11.562;2023-07-31T02:56:20;14.00;99.90
36586;DHT22;22591;48.314;11.562;2023-07-31T02:58:46;13.90;99.90
36586;DHT22;22591;48.314;11.562;2023-07-31T03:01:12;14.00;99.90
36586;DHT22;22591;48.314;11.562;2023-07-31T03:03:37;13.90;99.90
36586;DHT22;22591;48.314;11.562;2023-07-31T03:06:03;13.90;99.90
36586;DHT22;22591;48.314;11.562;2023-07-31T03:08:28;13.90;99.90
36586;DHT22;22591;48.314;11.562;2023-07-31T03:10:54;13.90;99.90
36586;DHT22;22591;48.314;11.562;2023-07-31T03:13:19;13.90;99.90
36586;DHT22;22591;48.314;11.562;2023-07-31T03:15:45;13.90;99.90
36586;DHT22;22591;48.314;11.562;2023-07-31T03:18:10;13.90;99.90
36586;DHT22;22591;48.314;11.562;2023-07-31T03:20:36;13.90;99.90
36586;DHT22;22591;48.314;11.562;2023-07-31T03:23:01;13.90;99.90
36586;DHT22;22591;48.314;11.562;2023-07-31T03:25:27;13.90;99.90
36586;DHT22;22591;48.314;11.562;2023-07-31T03:27:52;13.90;99.90
36586;DHT22;22591;48.314;11.562;2023-07-31T03:30:18;13.90;99.90
36586;DHT22;22591;48.314;11.562;2023-07-31T03:32:43;14.00;99.90
36586;DHT22;22591;48.314;11.562;2023-07-31T03:35:09;14.10;99.90
36586;DHT22;22591;48.314;11.562;2023-07-31T03:37:35;14.20;99.90
36586;DHT22;22591;48.314;11.562;2023-07-31T03:40:00;14.20;99.90
36586;DHT22;22591;48.314;11.562;2023-07-31T03:42:26;14.30;99.90
36586;DHT22;22591;48.314;11.562;2023-07-31T03:44:51;14.40;99.90
36586;DHT22;22591;48.314;11.562;2023-07-31T03:47:17;14.50;99.90
36586;DHT22;22591;48.314;11.562;2023-07-31T03:49:42;14.50;99.90
36586;DHT22;22591;48.314;11.562;2023-07-31T03:52:08;14.60;99.90
36586;DHT22;22591;48.314;11.562;2023-07-31T03:54:33;14.70;99.90
36586;DHT22;22591;48.314;11.562;2023-07-31T03:56:59;14.80;99.90
36586;DHT22;22591;48.314;11.562;2023-07-31T03:59:24;14.90;99.90
36586;DHT22;22591;48.314;11.562;2023-07-31T04:01:50;15.00;99.90
36586;DHT22;22591;48.314;11.562;2023-07-31T04:04:15;15.00;99.90
36586;DHT22;22591;48.314;11.562;2023-07-31T04:06:41;15.10;99.90
36586;DHT22;22591;48.314;11.562;2023-07-31T04:09:06;15.20;99.90
36586;DHT22;22591;48.314;11.562;2023-07-31T04:11:32;15.20;99.90
36586;DHT22;22591;48.314;11.562;2023-07-31T04:13:57;15.20;99.90
36586;DHT22;22591;48.314;11.562;2023-07-31T04:16:23;15.30;99.90
36586;DHT22;22591;48.314;11.562;2023-07-31T04:18:49;15.40;99.90
36586;DHT22;22591;48.314;11.562;2023-07-31T04:21:14;15.40;99.90
36586;DHT22;22591;48.314;11.562;2023-07-31T04:23:40;15.50;99.90
36586;DHT22;22591;48.314;11.562;2023-07-31T04:26:05;15.60;99.90
36586;DHT22;22591;48.314;11.562;2023-07-31T04:28:31;15.70;99.90
36586;DHT22;22591;48.314;11.562;2023-07-31T04:30:57;15.70;99.90
36586;DHT22;22591;48.314;11.562;2023-07-31T04:33:22;15.90;99.90
36586;DHT22;22591;48.314;11.562;2023-07-31T04:35:50;16.00;99.90
36586;DHT22;22591;48.314;11.562;2023-07-31T04:38:18;16.10;99.90
36586;DHT22;22591;48.314;11.562;2023-07-31T04:40:44;16.20;99.90
36586;DHT22;22591;48.314;11.562;2023-07-31T04:43:09;16.20;99.90
36586;DHT22;22591;48.314;11.562;2023-07-31T04:45:35;16.20;99.90
36586;DHT22;22591;48.314;11.562;2023-07-31T04:48:00;16.10;99.90
36586;DHT22;22591;48.314;11.562;2023-07-31T04:50:26;16.10;99.90
36586;DHT22;22591;48.314;11.562;2023-07-31T04:52:52;16.00;99.90
36586;DHT22;22591;48.314;11.562;2023-07-31T04:55:17;16.00;99.90
36586;DHT22;22591;48.314;11.562;2023-07-31T04:57:43;16.00;99.90
36586;DHT22;22591;48.314;11.562;2023-07-31T05:00:08;16.10;99.90
36586;DHT22;22591;48.314;11.562;2023-07-31T05:02:34;16.10;99.90
36586;DHT22;22591;48.314;11.562;2023-07-31T05:05:00;16.20;99.90
36586;DHT22;22591;48.314;11.562;2023-07-31T05:07:25;16.30;99.90
36586;DHT22;22591;48.314;11.562;2023-07-31T05:09:51;16.50;99.90
36586;DHT22;22591;48.314;11.562;2023-07-31T05:12:16;16.70;99.90
36586;DHT22;22591;48.314;11.562;2023-07-31T05:14:42;16.90;99.90
36586;DHT22;22591;48.314;11.562;2023-07-31T05:17:07;17.10;99.90
36586;DHT22;22591;48.314;11.562;2023-07-31T05:19:33;17.20;99.90
36586;DHT22;22591;48.314;11.562;2023-07-31T05:21:58;17.40;99.90
36586;DHT22;22591;48.314;11.562;2023-07-31T05:24:24;17.60;99.90
36586;DHT22;22591;48.314;11.562;2023-07-31T05:26:49;17.70;99.90
36586;DHT22;22591;48.314;11.562;2023-07-31T05:29:15;18.00;99.90
36586;DHT22;22591;48.314;11.562;2023-07-31T05:31:41;18.20;99.90
36586;DHT22;22591;48.314;11.562;2023-07-31T05:34:07;18.50;99.90
36586;DHT22;22591;48.314;11.562;2023-07-31T05:36:33;18.70;99.90
36586;DHT22;22591;48.314;11.562;2023-07-31T05:38:58;18.90;99.90
36586;DHT22;22591;48.314;11.562;2023-07-31T05:41:24;19.10;99.90
36586;DHT22;22591;48.314;11.562;2023-07-31T05:43:49;19.50;99.90
36586;DHT22;22591;48.314;11.562;2023-07-31T05:46:15;19.70;99.90
36586;DHT22;22591;48.314;11.562;2023-07-31T05:48:40;19.90;99.90
36586;DHT22;22591;48.314;11.562;2023-07-31T05:51:06;20.10;99.90
36586;DHT22;22591;48.314;11.562;2023-07-31T05:53:32;20.30;99.90
36586;DHT22;22591;48.314;11.562;2023-07-31T05:55:58;20.40;99.90
36586;DHT22;22591;48.314;11.562;2023-07-31T05:58:23;20.40;99.90
36586;DHT22;22591;48.314;11.562;2023-07-31T06:00:49;20.30;99.90
36586;DHT22;22591;48.314;11.562;2023-07-31T06:03:14;20.00;99.90
36586;DHT22;22591;48.314;11.562;2023-07-31T06:05:40;19.80;99.90
36586;DHT22;22591;48.314;11.562;2023-07-31T06:08:05;19.60;99.90
36586;DHT22;22591;48.314;11.562;2023-07-31T06:10:31;19.40;99.90
36586;DHT22;22591;48.314;11.562;2023-07-31T06:12:56;19.40;99.90
36586;DHT22;22591;48.314;11.562;2023-07-31T06:15:22;19.40;99.90
36586;DHT22;22591;48.314;11.562;2023-07-31T06:17:48;19.30;99.90
36586;DHT22;22591;48.314;11.562;2023-07-31T06:20:13;19.30;99.90
36586;DHT22;22591;48.314;11.562;2023-07-31T06:22:39;19.50;99.90
36586;DHT22;22591;48.314;11.562;2023-07-31T06:25:05;19.50;99.90
36586;DHT22;22591;48.314;11.562;2023-07-31T06:27:30;19.60;99.90
36586;DHT22;22591;48.314;11.562;2023-07-31T06:29:56;19.60;99.90
36586;DHT22;22591;48.314;11.562;2023-07-31T06:32:22;19.80;99.90
36586;DHT22;22591;48.314;11.562;2023-07-31T06:34:47;19.90;99.90
36586;DHT22;22591;48.314;11.562;2023-07-31T06:37:13;20.00;99.90
36586;DHT22;22591;48.314;11.562;2023-07-31T06:39:38;20.20;99.90
36586;DHT22;22591;48.314;11.562;2023-07-31T06:42:04;20.30;99.90
36586;DHT22;22591;48.314;11.562;2023-07-31T06:44:30;20.40;99.90
36586;DHT22;22591;48.314;11.562;2023-07-31T06:46:55;20.40;99.90
36586;DHT22;22591;48.314;11.562;2023-07-31T06:49:21;20.30;99.90
36586;DHT22;22591;48.314;11.562;2023-07-31T06:51:46;20.30;99.90
36586;DHT22;22591;48.314;11.562;2023-07-31T06:54:12;20.50;99.90
36586;DHT22;22591;48.314;11.562;2023-07-31T06:56:37;20.80;99.90
36586;DHT22;22591;48.314;11.562;2023-07-31T06:59:03;20.90;99.90
36586;DHT22;22591;48.314;11.562;2023-07-31T07:01:29;21.30;99.90
36586;DHT22;22591;48.314;11.562;2023-07-31T07:03:54;21.60;99.90
36586;DHT22;22591;48.314;11.562;2023-07-31T07:06:22;21.70;99.40
36586;DHT22;22591;48.314;11.562;2023-07-31T07:08:48;22.00;98.80
36586;DHT22;22591;48.314;11.562;2023-07-31T07:11:13;22.00;98.40
36586;DHT22;22591;48.314;11.562;2023-07-31T07:13:39;22.00;98.50
36586;DHT22;22591;48.314;11.562;2023-07-31T07:16:04;21.90;98.10
36586;DHT22;22591;48.314;11.562;2023-07-31T07:18:30;21.80;98.30
36586;DHT22;22591;48.314;11.562;2023-07-31T07:20:57;21.60;97.60
36586;DHT22;22591;48.314;11.562;2023-07-31T07:23:23;21.40;97.90
36586;DHT22;22591;48.314;11.562;2023-07-31T07:25:49;21.50;97.80
36586;DHT22;22591;48.314;11.562;2023-07-31T07:28:15;21.60;98.00
36586;DHT22;22591;48.314;11.562;2023-07-31T07:30:40;21.70;97.40
36586;DHT22;22591;48.314;11.562;2023-07-31T07:33:06;21.70;97.40
36586;DHT22;22591;48.314;11.562;2023-07-31T07:35:35;21.70;97.30
36586;DHT22;22591;48.314;11.562;2023-07-31T07:38:02;21.70;97.50
36586;DHT22;22591;48.314;11.562;2023-07-31T07:40:28;21.70;96.90
36586;DHT22;22591;48.314;11.562;2023-07-31T07:42:53;21.70;96.80
36586;DHT22;22591;48.314;11.562;2023-07-31T07:45:19;21.80;96.60
36586;DHT22;22591;48.314;11.562;2023-07-31T07:47:44;21.70;96.50
36586;DHT22;22591;48.314;11.562;2023-07-31T07:50:10;21.80;96.70
36586;DHT22;22591;48.314;11.562;2023-07-31T07:52:36;22.10;95.90
36586;DHT22;22591;48.314;11.562;2023-07-31T07:55:01;22.70;95.80
36586;DHT22;22591;48.314;11.562;2023-07-31T07:57:28;22.90;95.10
36586;DHT22;22591;48.314;11.562;2023-07-31T07:59:53;23.00;95.10
36586;DHT22;22591;48.314;11.562;2023-07-31T08:02:19;23.30;94.50
36586;DHT22;22591;48.314;11.562;2023-07-31T08:04:45;23.50;93.50
36586;DHT22;22591;48.314;11.562;2023-07-31T08:07:13;23.80;92.90
36586;DHT22;22591;48.314;11.562;2023-07-31T08:09:39;24.00;92.40
36586;DHT22;22591;48.314;11.562;2023-07-31T08:12:05;24.10;91.80
36586;DHT22;22591;48.314;11.562;2023-07-31T08:14:31;24.00;91.70
36586;DHT22;22591;48.314;11.562;2023-07-31T08:16:57;23.90;91.90
36586;DHT22;22591;48.314;11.562;2023-07-31T08:19:22;24.00;91.70
36586;DHT22;22591;48.314;11.562;2023-07-31T08:21:48;24.10;91.20
36586;DHT22;22591;48.314;11.562;2023-07-31T08:24:13;24.30;90.50
36586;DHT22;22591;48.314;11.562;2023-07-31T08:26:39;24.40;90.30
36586;DHT22;22591;48.314;11.562;2023-07-31T08:29:05;24.50;90.20
36586;DHT22;22591;48.314;11.562;2023-07-31T08:31:31;24.30;87.30
36586;DHT22;22591;48.314;11.562;2023-07-31T08:33:56;23.90;87.80
36586;DHT22;22591;48.314;11.562;2023-07-31T08:36:22;23.80;87.50
36586;DHT22;22591;48.314;11.562;2023-07-31T08:38:47;23.60;86.70
36586;DHT22;22591;48.314;11.562;2023-07-31T08:41:13;23.60;87.30
36586;DHT22;22591;48.314;11.562;2023-07-31T08:43:39;23.60;85.60
36586;DHT22;22591;48.314;11.562;2023-07-31T08:46:05;23.70;83.40
36586;DHT22;22591;48.314;11.562;2023-07-31T08:48:31;23.50;82.10
36586;DHT22;22591;48.314;11.562;2023-07-31T08:50:58;23.40;83.10
36586;DHT22;22591;48.314;11.562;2023-07-31T08:53:24;23.40;84.10
36586;DHT22;22591;48.314;11.562;2023-07-31T08:55:50;23.40;83.40
36586;DHT22;22591;48.314;11.562;2023-07-31T08:58:18;23.10;83.40
36586;DHT22;22591;48.314;11.562;2023-07-31T09:00:46;22.80;86.30
36586;DHT22;22591;48.314;11.562;2023-07-31T09:03:17;22.50;91.90
36586;DHT22;22591;48.314;11.562;2023-07-31T09:05:46;22.10;93.80
36586;DHT22;22591;48.314;11.562;2023-07-31T09:08:13;21.90;94.20
36586;DHT22;22591;48.314;11.562;2023-07-31T09:10:43;22.20;95.00
36586;DHT22;22591;48.314;11.562;2023-07-31T09:13:09;22.20;93.50
36586;DHT22;22591;48.314;11.562;2023-07-31T09:15:36;22.60;93.80
36586;DHT22;22591;48.314;11.562;2023-07-31T09:18:03;22.80;93.10
36586;DHT22;22591;48.314;11.562;2023-07-31T09:20:29;23.30;92.70
36586;DHT22;22591;48.314;11.562;2023-07-31T09:22:55;23.70;91.50
36586;DHT22;22591;48.314;11.562;2023-07-31T09:25:24;23.90;90.40
36586;DHT22;22591;48.314;11.562;2023-07-31T09:27:51;24.10;89.40
36586;DHT22;22591;48.314;11.562;2023-07-31T09:30:17;24.00;88.60
36586;DHT22;22591;48.314;11.562;2023-07-31T09:32:44;24.00;88.20
36586;DHT22;22591;48.314;11.562;2023-07-31T09:35:31;23.90;87.90
36586;DHT22;22591;48.314;11.562;2023-07-31T09:38:05;23.80;87.70
36586;DHT22;22591;48.314;11.562;2023-07-31T09:40:32;23.60;87.80
36586;DHT22;22591;48.314;11.562;2023-07-31T09:43:00;23.70;86.80
36586;DHT22;22591;48.314;11.562;2023-07-31T09:45:26;23.60;85.20
36586;DHT22;22591;48.314;11.562;2023-07-31T09:47:53;23.50;84.30
36586;DHT22;22591;48.314;11.562;2023-07-31T09:50:21;23.70;85.30
36586;DHT22;22591;48.314;11.562;2023-07-31T09:52:46;23.60;84.20
36586;DHT22;22591;48.314;11.562;2023-07-31T09:55:12;23.70;84.70
36586;DHT22;22591;48.314;11.562;2023-07-31T09:57:42;24.00;85.50
36586;DHT22;22591;48.314;11.562;2023-07-31T10:00:12;24.20;84.00
36586;DHT22;22591;48.314;11.562;2023-07-31T10:02:38;24.20;81.80
36586;DHT22;22591;48.314;11.562;2023-07-31T10:05:05;24.20;81.10
36586;DHT22;22591;48.314;11.562;2023-07-31T10:07:36;24.20;81.30
36586;DHT22;22591;48.314;11.562;2023-07-31T10:10:02;24.30;80.40
36586;DHT22;22591;48.314;11.562;2023-07-31T10:12:29;24.60;79.30
36586;DHT22;22591;48.314;11.562;2023-07-31T10:14:57;24.80;78.80
36586;DHT22;22591;48.314;11.562;2023-07-31T10:17:25;24.60;79.50
36586;DHT22;22591;48.314;11.562;2023-07-31T10:19:51;24.40;80.50
36586;DHT22;22591;48.314;11.562;2023-07-31T10:22:18;24.60;79.60
36586;DHT22;22591;48.314;11.562;2023-07-31T10:24:45;24.60;79.20
36586;DHT22;22591;48.314;11.562;2023-07-31T10:27:11;24.90;79.20
36586;DHT22;22591;48.314;11.562;2023-07-31T10:29:38;25.10;78.50
36586;DHT22;22591;48.314;11.562;2023-07-31T10:32:06;25.40;78.80
36586;DHT22;22591;48.314;11.562;2023-07-31T10:34:34;25.30;77.10
36586;DHT22;22591;48.314;11.562;2023-07-31T10:39:59;25.30;76.80
36586;DHT22;22591;48.314;11.562;2023-07-31T10:42:35;25.40;76.60
36586;DHT22;22591;48.314;11.562;2023-07-31T10:45:04;25.40;77.90
36586;DHT22;22591;48.314;11.562;2023-07-31T10:47:30;25.40;76.90
36586;DHT22;22591;48.314;11.562;2023-07-31T10:50:18;25.40;75.80
36586;DHT22;22591;48.314;11.562;2023-07-31T10:52:52;25.50;76.60
36586;DHT22;22591;48.314;11.562;2023-07-31T10:55:40;25.70;76.90
36586;DHT22;22591;48.314;11.562;2023-07-31T10:58:13;25.90;75.20
36586;DHT22;22591;48.314;11.562;2023-07-31T11:00:41;25.80;75.20
36586;DHT22;22591;48.314;11.562;2023-07-31T11:03:17;25.80;75.40
36586;DHT22;22591;48.314;11.562;2023-07-31T11:08:28;25.90;75.40
36586;DHT22;22591;48.314;11.562;2023-07-31T11:15:54;25.80;73.90
36586;DHT22;22591;48.314;11.562;2023-07-31T11:18:19;25.70;73.70
36586;DHT22;22591;48.314;11.562;2023-07-31T11:20:45;25.70;73.60
36586;DHT22;22591;48.314;11.562;2023-07-31T11:23:11;25.90;73.30
36586;DHT22;22591;48.314;11.562;2023-07-31T11:25:38;26.00;73.90
36586;DHT22;22591;48.314;11.562;2023-07-31T11:28:10;26.00;73.70
36586;DHT22;22591;48.314;11.562;2023-07-31T11:30:36;25.90;75.60
36586;DHT22;22591;48.314;11.562;2023-07-31T11:33:03;25.60;74.90
36586;DHT22;22591;48.314;11.562;2023-07-31T11:35:34;25.50;76.20
36586;DHT22;22591;48.314;11.562;2023-07-31T11:38:00;25.40;74.90
36586;DHT22;22591;48.314;11.562;2023-07-31T11:40:27;25.20;74.50
36586;DHT22;22591;48.314;11.562;2023-07-31T11:42:58;24.90;75.50
36586;DHT22;22591;48.314;11.562;2023-07-31T11:45:27;24.70;76.30
36586;DHT22;22591;48.314;11.562;2023-07-31T11:47:56;24.60;76.20
36586;DHT22;22591;48.314;11.562;2023-07-31T11:50:23;24.60;76.90
36586;DHT22;22591;48.314;11.562;2023-07-31T11:52:55;24.60;77.40
36586;DHT22;22591;48.314;11.562;2023-07-31T11:55:23;24.60;78.00
36586;DHT22;22591;48.314;11.562;2023-07-31T11:57:49;24.60;76.60
36586;DHT22;22591;48.314;11.562;2023-07-31T12:00:15;24.60;75.90
36586;DHT22;22591;48.314;11.562;2023-07-31T12:02:42;24.60;77.20
36586;DHT22;22591;48.314;11.562;2023-07-31T12:05:12;24.60;76.50
36586;DHT22;22591;48.314;11.562;2023-07-31T12:08:11;24.70;76.30
36586;DHT22;22591;48.314;11.562;2023-07-31T12:10:37;24.70;76.10
36586;DHT22;22591;48.314;11.562;2023-07-31T12:13:11;24.80;74.90
36586;DHT22;22591;48.314;11.562;2023-07-31T12:15:44;24.70;75.40
36586;DHT22;22591;48.314;11.562;2023-07-31T12:18:12;24.90;75.40
36586;DHT22;22591;48.314;11.562;2023-07-31T12:20:46;25.00;75.50
36586;DHT22;22591;48.314;11.562;2023-07-31T12:25:45;25.40;75.10
36586;DHT22;22591;48.314;11.562;2023-07-31T12:28:10;25.70;75.90
36586;DHT22;22591;48.314;11.562;2023-07-31T12:30:40;26.00;74.50
36586;DHT22;22591;48.314;11.562;2023-07-31T12:33:12;26.20;74.50
36586;DHT22;22591;48.314;11.562;2023-07-31T12:35:38;26.70;71.90
36586;DHT22;22591;48.314;11.562;2023-07-31T12:38:05;26.70;70.10
36586;DHT22;22591;48.314;11.562;2023-07-31T12:40:32;26.80;70.90
36586;DHT22;22591;48.314;11.562;2023-07-31T12:42:57;26.70;70.40
36586;DHT22;22591;48.314;11.562;2023-07-31T12:45:23;26.50;70.60
36586;DHT22;22591;48.314;11.562;2023-07-31T12:47:48;26.20;69.70
36586;DHT22;22591;48.314;11.562;2023-07-31T12:50:14;26.20;70.00
36586;DHT22;22591;48.314;11.562;2023-07-31T12:52:39;26.40;68.50
36586;DHT22;22591;48.314;11.562;2023-07-31T12:55:05;26.60;68.90
36586;DHT22;22591;48.314;11.562;2023-07-31T12:57:31;26.70;68.10
36586;DHT22;22591;48.314;11.562;2023-07-31T12:59:56;26.90;68.30
36586;DHT22;22591;48.314;11.562;2023-07-31T13:02:22;26.80;69.10
36586;DHT22;22591;48.314;11.562;2023-07-31T13:04:49;27.10;69.50
36586;DHT22;22591;48.314;11.562;2023-07-31T13:07:15;27.20;69.70
36586;DHT22;22591;48.314;11.562;2023-07-31T13:09:40;27.10;69.40
36586;DHT22;22591;48.314;11.562;2023-07-31T13:12:06;27.10;69.80
36586;DHT22;22591;48.314;11.562;2023-07-31T13:14:32;27.30;69.10
36586;DHT22;22591;48.314;11.562;2023-07-31T13:16:57;27.60;69.60
36586;DHT22;22591;48.314;11.562;2023-07-31T13:19:23;27.80;67.80
36586;DHT22;22591;48.314;11.562;2023-07-31T13:21:49;27.80;68.00
36586;DHT22;22591;48.314;11.562;2023-07-31T13:24:14;27.80;66.60
36586;DHT22;22591;48.314;11.562;2023-07-31T13:26:40;27.50;66.70
36586;DHT22;22591;48.314;11.562;2023-07-31T13:29:05;27.40;67.70
36586;DHT22;22591;48.314;11.562;2023-07-31T13:31:31;27.30;67.90
36586;DHT22;22591;48.314;11.562;2023-07-31T13:33:56;27.10;67.90
36586;DHT22;22591;48.314;11.562;2023-07-31T13:36:23;27.20;67.00
36586;DHT22;22591;48.314;11.562;2023-07-31T13:38:48;27.00;67.50
36586;DHT22;22591;48.314;11.562;2023-07-31T13:41:14;26.80;67.90
36586;DHT22;22591;48.314;11.562;2023-07-31T13:43:39;26.70;69.00
36586;DHT22;22591;48.314;11.562;2023-07-31T13:46:06;26.60;68.20
36586;DHT22;22591;48.314;11.562;2023-07-31T13:48:35;26.40;67.60
36586;DHT22;22591;48.314;11.562;2023-07-31T13:51:01;26.40;66.10
36586;DHT22;22591;48.314;11.562;2023-07-31T13:53:27;26.20;66.20
36586;DHT22;22591;48.314;11.562;2023-07-31T13:55:52;26.20;67.30
36586;DHT22;22591;48.314;11.562;2023-07-31T13:58:18;26.10;65.90
36586;DHT22;22591;48.314;11.562;2023-07-31T14:00:43;26.10;66.60
36586;DHT22;22591;48.314;11.562;2023-07-31T14:03:09;26.00;67.70
36586;DHT22;22591;48.314;11.562;2023-07-31T14:05:35;26.00;68.00
36586;DHT22;22591;48.314;11.562;2023-07-31T14:08:00;26.10;68.30
36586;DHT22;22591;48.314;11.562;2023-07-31T14:10:26;26.10;67.80
36586;DHT22;22591;48.314;11.562;2023-07-31T14:12:52;26.10;68.10
36586;DHT22;22591;48.314;11.562;2023-07-31T14:15:17;26.30;68.30
36586;DHT22;22591;48.314;11.562;2023-07-31T14:17:43;26.50;68.80
36586;DHT22;22591;48.314;11.562;2023-07-31T14:20:09;26.60;68.80
36586;DHT22;22591;48.314;11.562;2023-07-31T14:22:35;26.80;67.90
36586;DHT22;22591;48.314;11.562;2023-07-31T14:25:01;26.80;67.40
36586;DHT22;22591;48.314;11.562;2023-07-31T14:27:26;27.20;68.60
36586;DHT22;22591;48.314;11.562;2023-07-31T14:29:52;27.40;67.50
36586;DHT22;22591;48.314;11.562;2023-07-31T14:32:17;27.80;66.40
36586;DHT22;22591;48.314;11.562;2023-07-31T14:34:43;27.70;65.60
36586;DHT22;22591;48.314;11.562;2023-07-31T14:37:08;27.50;65.80
36586;DHT22;22591;48.314;11.562;2023-07-31T14:39:34;27.50;65.60
36586;DHT22;22591;48.314;11.562;2023-07-31T14:41:59;27.70;65.80
36586;DHT22;22591;48.314;11.562;2023-07-31T14:44:25;27.70;65.10
36586;DHT22;22591;48.314;11.562;2023-07-31T14:46:50;28.10;65.10
36586;DHT22;22591;48.314;11.562;2023-07-31T14:49:16;28.40;64.90
36586;DHT22;22591;48.314;11.562;2023-07-31T14:51:42;28.30;64.70
36586;DHT22;22591;48.314;11.562;2023-07-31T14:54:08;28.20;63.80
36586;DHT22;22591;48.314;11.562;2023-07-31T14:56:34;28.20;64.50
36586;DHT22;22591;48.314;11.562;2023-07-31T14:58:59;28.20;63.90
36586;DHT22;22591;48.314;11.562;2023-07-31T15:01:25;28.30;64.90
36586;DHT22;22591;48.314;11.562;2023-07-31T15:03:50;28.30;63.40
36586;DHT22;22591;48.314;11.562;2023-07-31T15:06:16;28.20;64.20
36586;DHT22;22591;48.314;11.562;2023-07-31T15:08:41;28.10;63.40
36586;DHT22;22591;48.314;11.562;2023-07-31T15:11:07;27.80;63.10
36586;DHT22;22591;48.314;11.562;2023-07-31T15:13:33;27.30;64.20
36586;DHT22;22591;48.314;11.562;2023-07-31T15:15:59;26.90;64.80
36586;DHT22;22591;48.314;11.562;2023-07-31T15:18:24;26.50;65.60
36586;DHT22;22591;48.314;11.562;2023-07-31T15:20:50;26.40;67.10
36586;DHT22;22591;48.314;11.562;2023-07-31T15:23:15;26.40;71.90
36586;DHT22;22591;48.314;11.562;2023-07-31T15:25:41;26.50;69.90
36586;DHT22;22591;48.314;11.562;2023-07-31T15:28:07;26.50;70.80
36586;DHT22;22591;48.314;11.562;2023-07-31T15:30:35;26.30;69.60